createdAt,value
2022-10-28T00:01:50.914Z,13.49
2022-10-28T00:04:18.711Z,13.47
2022-10-28T00:06:46.289Z,13.46
2022-10-28T00:09:13.922Z,13.44
2022-10-28T00:11:41.490Z,13.43
2022-10-28T00:14:11.083Z,13.49
2022-10-28T00:16:39.143Z,13.45
2022-10-28T00:19:08.361Z,13.31
2022-10-28T00:21:38.888Z,13.35
2022-10-28T00:24:07.781Z,13.43
2022-10-28T00:26:37.285Z,13.52
2022-10-28T00:29:06.800Z,13.55
2022-10-28T00:31:37.226Z,13.49
2022-10-28T00:34:06.934Z,13.52
2022-10-28T00:36:37.134Z,13.53
2022-10-28T00:39:11.607Z,13.49
2022-10-28T00:41:40.823Z,13.56
2022-10-28T00:44:41.826Z,13.51
2022-10-28T00:47:16.140Z,13.67
2022-10-28T00:49:45.149Z,13.64
2022-10-28T00:52:18.704Z,13.69
2022-10-28T00:54:46.862Z,13.73
2022-10-28T00:57:18.461Z,13.80
2022-10-28T00:59:50.737Z,13.83
2022-10-28T01:02:20.422Z,13.80
2022-10-28T01:04:48.831Z,13.82
2022-10-28T01:07:17.959Z,13.84
2022-10-28T01:09:46.061Z,13.87
2022-10-28T01:12:23.804Z,13.91
2022-10-28T01:15:05.549Z,13.99
2022-10-28T01:17:47.385Z,13.94
2022-10-28T01:21:02.061Z,13.87
2022-10-28T01:23:36.140Z,13.87
2022-10-28T01:26:39.211Z,14.06
2022-10-28T01:29:40.810Z,14.06
2022-10-28T01:32:17.694Z,14.05
2022-10-28T01:34:54.266Z,14.05
2022-10-28T01:37:32.319Z,14.05
2022-10-28T01:40:06.821Z,13.99
2022-10-28T01:42:42.906Z,13.88
2022-10-28T01:45:15.730Z,13.87
2022-10-28T01:47:51.429Z,13.86
2022-10-28T01:50:24.472Z,13.87
2022-10-28T01:52:56.907Z,14.01
2022-10-28T01:55:28.094Z,14.10
2022-10-28T01:58:00.082Z,14.13
2022-10-28T02:00:27.930Z,14.14
2022-10-28T02:02:57.308Z,14.14
2022-10-28T02:05:43.682Z,14.10
2022-10-28T02:08:25.155Z,14.16
2022-10-28T02:11:10.733Z,13.92
2022-10-28T02:13:47.913Z,14.17
2022-10-28T02:16:24.995Z,14.19
2022-10-28T02:19:04.533Z,14.02
2022-10-28T02:21:43.195Z,13.99
2022-10-28T02:24:19.549Z,14.31
2022-10-28T02:26:55.715Z,14.00
2022-10-28T02:29:32.285Z,14.03
2022-10-28T02:32:05.498Z,14.42
2022-10-28T02:34:38.690Z,14.18
2022-10-28T02:37:12.054Z,14.35
2022-10-28T02:39:43.484Z,14.40
2022-10-28T02:42:16.492Z,14.73
2022-10-28T02:44:48.847Z,14.53
2022-10-28T02:47:20.933Z,14.73
2022-10-28T02:49:54.633Z,14.70
2022-10-28T02:52:26.420Z,14.69
2022-10-28T02:54:56.035Z,14.83
2022-10-28T02:57:26.087Z,14.72
2022-10-28T03:01:07.699Z,14.80
2022-10-28T03:03:35.414Z,14.73
2022-10-28T03:06:04.480Z,14.60
2022-10-28T03:08:32.015Z,14.43
2022-10-28T03:10:59.578Z,14.40
2022-10-28T03:13:27.102Z,14.55
2022-10-28T03:15:54.637Z,14.52
2022-10-28T03:18:22.255Z,14.42
2022-10-28T03:20:49.876Z,14.33
2022-10-28T03:23:19.765Z,14.30
2022-10-28T03:25:47.362Z,14.29
2022-10-28T03:28:14.893Z,14.26
2022-10-28T03:30:43.482Z,14.22
2022-10-28T03:33:11.083Z,14.24
2022-10-28T03:35:38.641Z,14.29
2022-10-28T03:38:06.266Z,14.31
2022-10-28T03:40:35.329Z,14.14
2022-10-28T03:43:04.395Z,14.08
2022-10-28T03:45:32.371Z,14.10
2022-10-28T03:48:00.161Z,14.15
2022-10-28T03:50:27.802Z,14.16
2022-10-28T03:52:55.495Z,14.21
2022-10-28T03:55:23.752Z,14.18
2022-10-28T03:57:53.165Z,14.29
2022-10-28T04:00:21.391Z,14.37
2022-10-28T04:02:52.003Z,14.06
2022-10-28T04:05:20.501Z,14.15
2022-10-28T04:07:48.477Z,14.10
2022-10-28T04:10:16.170Z,14.05
2022-10-28T04:12:43.922Z,13.98
2022-10-28T04:15:12.997Z,14.02
2022-10-28T04:17:40.681Z,14.01
2022-10-28T04:20:09.865Z,13.85
2022-10-28T04:22:37.554Z,13.67
2022-10-28T04:25:05.972Z,13.58
2022-10-28T04:27:33.860Z,13.53
2022-10-28T04:30:01.574Z,13.62
2022-10-28T04:32:30.770Z,13.67
2022-10-28T04:34:58.443Z,13.69
2022-10-28T04:37:26.068Z,13.54
2022-10-28T04:39:53.784Z,13.76
2022-10-28T04:42:21.431Z,13.83
2022-10-28T04:44:49.060Z,13.84
2022-10-28T04:47:17.481Z,13.80
2022-10-28T04:49:46.850Z,13.75
2022-10-28T04:52:15.792Z,13.77
2022-10-28T04:54:43.831Z,13.72
2022-10-28T04:57:11.536Z,13.60
2022-10-28T04:59:39.210Z,13.60
2022-10-28T05:02:07.219Z,13.54
2022-10-28T05:04:35.006Z,13.51
2022-10-28T05:07:04.008Z,13.47
2022-10-28T05:09:31.738Z,13.57
2022-10-28T05:11:59.478Z,13.52
2022-10-28T05:14:27.412Z,13.50
2022-10-28T05:16:55.258Z,13.42
2022-10-28T05:19:23.121Z,13.44
2022-10-28T05:21:50.834Z,13.39
2022-10-28T05:24:19.979Z,13.39
2022-10-28T05:26:47.643Z,13.46
2022-10-28T05:29:15.639Z,13.50
2022-10-28T05:31:43.354Z,13.44
2022-10-28T05:34:11.040Z,13.09
2022-10-28T05:36:39.332Z,13.14
2022-10-28T05:39:07.303Z,13.40
2022-10-28T05:41:38.764Z,13.23
2022-10-28T05:44:07.163Z,13.58
2022-10-28T05:46:34.874Z,13.74
2022-10-28T05:49:02.648Z,13.56
2022-10-28T05:51:31.162Z,13.68
2022-10-28T05:53:58.868Z,13.80
2022-10-28T05:56:27.591Z,13.90
2022-10-28T05:58:56.667Z,13.96
2022-10-28T06:01:24.424Z,13.88
2022-10-28T06:03:52.184Z,13.85
2022-10-28T06:06:20.656Z,13.68
2022-10-28T06:08:48.840Z,13.67
2022-10-28T06:11:15.008Z,13.36
2022-10-28T06:13:42.909Z,13.59
2022-10-28T06:16:12.088Z,13.74
2022-10-28T06:18:39.922Z,13.75
2022-10-28T06:21:07.900Z,13.74
2022-10-28T06:23:35.822Z,13.68
2022-10-28T06:26:04.818Z,13.65
2022-10-28T06:28:32.642Z,13.79
2022-10-28T06:31:03.924Z,13.84
2022-10-28T06:33:33.323Z,13.81
2022-10-28T06:36:01.570Z,13.91
2022-10-28T06:38:29.344Z,13.94
2022-10-28T06:41:00.505Z,13.92
2022-10-28T06:43:28.315Z,13.80
2022-10-28T06:45:56.189Z,13.97
2022-10-28T06:48:25.548Z,13.97
2022-10-28T06:50:56.388Z,13.90
2022-10-28T06:53:24.174Z,14.10
2022-10-28T06:55:55.393Z,13.94
2022-10-28T06:58:23.905Z,13.76
2022-10-28T07:00:52.413Z,13.84
2022-10-28T07:03:22.778Z,13.85
2022-10-28T07:05:51.837Z,13.80
2022-10-28T07:08:21.048Z,13.70
2022-10-28T07:10:55.657Z,13.97
2022-10-28T07:13:23.646Z,13.93
2022-10-28T07:15:54.903Z,13.83
2022-10-28T07:18:23.456Z,14.07
2022-10-28T07:20:51.626Z,14.09
2022-10-28T07:23:21.092Z,14.10
2022-10-28T07:28:22.329Z,14.09
2022-10-28T07:30:50.197Z,14.07
2022-10-28T07:33:18.783Z,14.19
2022-10-28T07:35:46.829Z,14.21
2022-10-28T07:38:14.726Z,14.28
2022-10-28T07:40:44.441Z,14.27
2022-10-28T07:43:12.435Z,14.27
2022-10-28T07:45:40.255Z,14.41
2022-10-28T07:48:08.566Z,14.43
2022-10-28T07:50:36.324Z,14.40
2022-10-28T07:53:05.167Z,14.43
2022-10-28T07:55:33.104Z,14.53
2022-10-28T07:58:02.233Z,14.52
2022-10-28T08:00:30.934Z,14.54
2022-10-28T08:02:58.706Z,14.52
2022-10-28T08:05:26.438Z,14.61
2022-10-28T08:07:54.536Z,14.70
2022-10-28T08:10:22.767Z,14.85
2022-10-28T08:12:50.539Z,14.97
2022-10-28T08:15:26.474Z,15.03
2022-10-28T08:17:55.132Z,15.12
2022-10-28T08:20:24.046Z,15.02
2022-10-28T08:22:54.873Z,15.09
2022-10-28T08:25:22.775Z,14.98
2022-10-28T08:27:51.523Z,15.10
2022-10-28T08:30:25.068Z,15.02
2022-10-28T08:32:55.995Z,15.25
2022-10-28T08:35:24.132Z,15.49
2022-10-28T08:37:53.018Z,15.56
2022-10-28T08:40:29.874Z,15.74
2022-10-28T08:43:08.986Z,15.71
2022-10-28T08:45:49.571Z,15.66
2022-10-28T08:48:27.204Z,15.80
2022-10-28T08:50:59.604Z,15.65
2022-10-28T08:53:31.090Z,15.77
2022-10-28T08:56:14.220Z,15.97
2022-10-28T08:58:45.057Z,16.11
2022-10-28T09:01:22.188Z,15.98
2022-10-28T09:03:53.291Z,15.81
2022-10-28T09:06:21.186Z,16.39
2022-10-28T09:08:51.745Z,16.58
2022-10-28T09:11:43.199Z,16.66
2022-10-28T09:14:30.899Z,16.83
2022-10-28T09:17:11.317Z,17.10
2022-10-28T09:19:49.632Z,17.33
2022-10-28T09:22:34.429Z,17.57
2022-10-28T09:25:06.101Z,17.20
2022-10-28T09:27:51.215Z,17.71
2022-10-28T09:30:29.379Z,19.02
2022-10-28T09:33:10.279Z,18.35
2022-10-28T09:35:43.095Z,19.20
2022-10-28T09:38:21.786Z,19.23
2022-10-28T09:40:57.495Z,19.07
2022-10-28T09:43:29.556Z,18.92
2022-10-28T09:46:03.208Z,19.22
2022-10-28T09:48:35.036Z,19.50
2022-10-28T09:51:04.033Z,20.06
2022-10-28T09:53:45.412Z,20.33
2022-10-28T09:56:13.255Z,20.12
2022-10-28T09:58:45.823Z,20.06
2022-10-28T10:01:14.645Z,20.04
2022-10-28T10:03:45.210Z,20.23
2022-10-28T10:06:15.276Z,20.86
2022-10-28T10:08:44.562Z,21.64
2022-10-28T10:11:19.548Z,21.85
2022-10-28T10:13:47.960Z,21.17
2022-10-28T10:16:20.833Z,20.80
2022-10-28T10:18:52.903Z,20.52
2022-10-28T10:21:41.974Z,20.77
2022-10-28T10:24:29.468Z,20.66
2022-10-28T10:26:58.421Z,21.73
2022-10-28T10:29:26.899Z,22.52
2022-10-28T10:32:14.820Z,22.82
2022-10-28T10:34:47.044Z,23.08
2022-10-28T10:37:21.158Z,23.39
2022-10-28T10:40:03.049Z,23.87
2022-10-28T10:42:30.754Z,24.29
2022-10-28T10:45:02.655Z,24.29
2022-10-28T10:47:30.764Z,25.13
2022-10-28T10:50:29.382Z,25.21
2022-10-28T10:52:59.257Z,25.29
2022-10-28T10:55:34.533Z,25.61
2022-10-28T10:58:03.457Z,24.32
2022-10-28T11:00:36.322Z,24.86
2022-10-28T11:03:05.910Z,24.30
2022-10-28T11:05:38.109Z,23.82
2022-10-28T11:08:07.727Z,23.42
2022-10-28T11:10:36.254Z,22.60
2022-10-28T11:13:06.650Z,22.71
2022-10-28T11:15:34.450Z,23.29
2022-10-28T11:18:04.843Z,24.89
2022-10-28T11:20:49.501Z,25.51
2022-10-28T11:23:45.574Z,25.75
2022-10-28T11:26:17.283Z,25.21
2022-10-28T11:29:08.577Z,26.02
2022-10-28T11:31:55.532Z,26.48
2022-10-28T11:34:41.645Z,27.08
2022-10-28T11:37:19.917Z,26.40
2022-10-28T11:39:58.344Z,26.92
2022-10-28T11:42:34.838Z,26.69
2022-10-28T11:45:10.151Z,26.96
2022-10-28T11:48:07.945Z,26.60
2022-10-28T11:50:59.244Z,26.58
2022-10-28T11:53:46.733Z,27.94
2022-10-28T11:56:29.175Z,28.53
2022-10-28T11:59:15.839Z,27.93
2022-10-28T12:01:56.181Z,26.90
2022-10-28T12:04:41.625Z,27.66
2022-10-28T12:07:37.289Z,27.92
2022-10-28T12:10:20.160Z,26.53
2022-10-28T12:12:55.421Z,27.25
2022-10-28T12:15:30.456Z,26.73
2022-10-28T12:18:07.360Z,28.33
2022-10-28T12:20:41.118Z,28.82
2022-10-28T12:23:13.757Z,28.30
2022-10-28T12:25:47.394Z,27.31
2022-10-28T12:28:21.007Z,28.23
2022-10-28T12:30:52.052Z,28.72
2022-10-28T12:33:24.760Z,27.81
2022-10-28T12:35:58.017Z,27.40
2022-10-28T12:38:33.745Z,27.92
2022-10-28T12:41:08.646Z,27.84
2022-10-28T12:43:41.553Z,28.02
2022-10-28T12:46:19.594Z,27.89
2022-10-28T12:48:52.430Z,28.31
2022-10-28T12:51:29.257Z,28.04
2022-10-28T12:54:02.593Z,28.36
2022-10-28T12:56:37.661Z,28.14
2022-10-28T12:59:12.166Z,27.78
2022-10-28T13:01:40.717Z,28.76
2022-10-28T13:04:12.807Z,28.40
2022-10-28T13:07:29.148Z,27.78
2022-10-28T13:10:07.844Z,27.50
2022-10-28T13:12:57.546Z,27.51
2022-10-28T13:15:39.866Z,28.13
2022-10-28T13:18:30.155Z,28.81
2022-10-28T13:21:08.941Z,28.83
2022-10-28T13:23:41.694Z,28.62
2022-10-28T13:26:22.322Z,28.45
2022-10-28T13:28:55.027Z,28.84
2022-10-28T13:31:23.201Z,28.49
2022-10-28T13:33:55.867Z,27.84
2022-10-28T13:36:28.335Z,27.26
2022-10-28T13:38:59.906Z,27.20
2022-10-28T13:41:34.031Z,27.15
2022-10-28T13:44:27.973Z,27.12
2022-10-28T13:47:23.864Z,27.37
2022-10-28T13:50:33.066Z,26.65
2022-10-28T13:53:43.474Z,26.51
2022-10-28T13:56:45.735Z,26.70
2022-10-28T13:59:50.109Z,26.89
2022-10-28T14:02:39.243Z,26.07
2022-10-28T14:05:09.174Z,26.13
2022-10-28T14:07:39.534Z,26.43
2022-10-28T14:10:21.020Z,26.47
2022-10-28T14:12:52.287Z,26.28
2022-10-28T14:15:25.652Z,25.92
2022-10-28T14:18:05.006Z,25.68
2022-10-28T14:20:58.961Z,25.97
2022-10-28T14:24:06.719Z,25.89
2022-10-28T14:27:30.407Z,25.67
2022-10-28T14:30:29.816Z,25.77
2022-10-28T14:33:00.596Z,25.76
2022-10-28T14:35:34.186Z,25.71
2022-10-28T14:38:31.320Z,25.50
2022-10-28T14:41:12.617Z,25.48
2022-10-28T14:43:51.944Z,25.39
2022-10-28T14:46:38.237Z,25.53
2022-10-28T14:49:17.996Z,25.33
2022-10-28T14:51:49.102Z,25.29
2022-10-28T14:54:20.121Z,25.07
2022-10-28T14:56:48.527Z,25.04
2022-10-28T14:59:25.657Z,24.65
2022-10-28T15:02:42.929Z,24.56
2022-10-28T15:05:20.302Z,24.36
2022-10-28T15:07:48.918Z,24.01
2022-10-28T15:10:19.357Z,23.74
2022-10-28T15:12:49.616Z,23.80
2022-10-28T15:15:19.248Z,23.48
2022-10-28T15:17:47.284Z,23.25
2022-10-28T15:20:24.469Z,23.17
2022-10-28T15:22:53.580Z,22.87
2022-10-28T15:25:22.823Z,22.86
2022-10-28T15:27:53.292Z,22.82
2022-10-28T15:30:23.648Z,22.57
2022-10-28T15:32:52.391Z,22.39
2022-10-28T15:35:39.628Z,22.19
2022-10-28T15:38:34.049Z,22.01
2022-10-28T15:41:01.872Z,21.82
2022-10-28T15:43:32.186Z,21.70
2022-10-28T15:46:11.179Z,21.65
2022-10-28T15:48:39.342Z,21.65
2022-10-28T15:51:17.220Z,21.64
2022-10-28T15:53:45.277Z,21.56
2022-10-28T15:56:23.967Z,21.55
2022-10-28T15:59:08.955Z,21.38
2022-10-28T16:01:39.450Z,21.33
2022-10-28T16:04:28.126Z,21.36
2022-10-28T16:06:58.762Z,21.14
2022-10-28T16:09:32.282Z,21.12
2022-10-28T16:12:03.201Z,21.23
2022-10-28T16:14:39.105Z,21.12
2022-10-28T16:17:15.144Z,21.05
2022-10-28T16:19:47.600Z,21.13
2022-10-28T16:22:18.351Z,20.89
2022-10-28T16:24:47.353Z,20.73
2022-10-28T16:27:26.879Z,20.48
2022-10-28T16:29:54.986Z,20.28
2022-10-28T16:32:28.628Z,20.15
2022-10-28T16:34:58.012Z,20.11
2022-10-28T16:37:29.353Z,20.10
2022-10-28T16:39:58.006Z,20.03
2022-10-28T16:42:26.822Z,19.96
2022-10-28T16:44:54.466Z,19.92
2022-10-28T16:47:26.646Z,19.79
2022-10-28T16:49:57.644Z,19.74
2022-10-28T16:52:29.145Z,19.75
2022-10-28T16:54:57.440Z,19.77
2022-10-28T16:57:25.680Z,19.81
2022-10-28T16:59:53.789Z,19.86
2022-10-28T17:02:25.594Z,19.74
2022-10-28T17:04:53.409Z,19.50
2022-10-28T17:07:21.042Z,19.53
2022-10-28T17:09:51.913Z,19.54
2022-10-28T17:12:21.718Z,19.66
2022-10-28T17:14:49.693Z,19.72
2022-10-28T17:17:17.573Z,19.62
2022-10-28T17:19:46.484Z,19.56
2022-10-28T17:22:14.551Z,19.58
2022-10-28T17:24:42.212Z,19.46
2022-10-28T17:27:13.053Z,19.55
2022-10-28T17:29:40.883Z,19.56
2022-10-28T17:32:09.315Z,19.50
2022-10-28T17:34:37.437Z,19.42
2022-10-28T17:37:05.356Z,19.34
2022-10-28T17:39:33.043Z,19.22
2022-10-28T17:42:01.213Z,19.12
2022-10-28T17:44:30.238Z,19.01
2022-10-28T17:46:58.019Z,19.05
2022-10-28T17:49:25.758Z,18.97
2022-10-28T17:51:53.937Z,19.09
2022-10-28T17:54:21.608Z,19.10
2022-10-28T17:56:49.199Z,19.07
2022-10-28T17:59:18.744Z,19.18
2022-10-28T18:01:47.858Z,19.14
2022-10-28T18:04:15.793Z,18.97
2022-10-28T18:06:43.482Z,19.12
2022-10-28T18:09:12.079Z,18.96
2022-10-28T18:11:39.959Z,19.02
2022-10-28T18:14:07.740Z,19.13
2022-10-28T18:16:37.899Z,19.16
2022-10-28T18:19:08.558Z,19.12
2022-10-28T18:21:37.139Z,19.10
2022-10-28T18:24:05.612Z,19.08
2022-10-28T18:26:34.714Z,19.04
2022-10-28T18:29:04.727Z,19.08
2022-10-28T18:31:34.143Z,18.90
2022-10-28T18:34:04.206Z,18.97
2022-10-28T18:36:48.742Z,18.98
2022-10-28T18:39:20.237Z,18.95
2022-10-28T18:41:48.528Z,18.84
2022-10-28T18:44:20.103Z,18.84
2022-10-28T18:46:48.320Z,18.83
2022-10-28T18:50:01.580Z,18.89
2022-10-28T18:53:13.301Z,18.91
2022-10-28T18:56:19.480Z,18.64
2022-10-28T19:05:57.120Z,18.85
2022-10-28T19:12:04.755Z,18.83
2022-10-28T19:15:01.499Z,18.86
2022-10-28T19:18:30.384Z,18.68
2022-10-28T19:22:00.266Z,18.72
2022-10-28T19:24:40.482Z,18.78
2022-10-28T19:27:36.018Z,18.76
2022-10-28T19:30:28.317Z,18.67
2022-10-28T19:33:50.125Z,18.62
2022-10-28T19:36:26.254Z,18.53
2022-10-28T19:39:36.466Z,18.50
2022-10-28T19:42:38.917Z,18.51
2022-10-28T19:45:15.393Z,18.43
2022-10-28T19:48:35.721Z,18.37
2022-10-28T19:52:10.228Z,18.31
2022-10-28T19:54:57.637Z,18.37
2022-10-28T19:58:10.220Z,18.23
2022-10-28T20:01:06.322Z,18.00
2022-10-28T20:07:38.733Z,17.74
2022-10-28T20:10:43.238Z,17.85
2022-10-28T20:17:09.309Z,17.58
2022-10-28T20:20:17.447Z,17.43
2022-10-28T20:26:12.613Z,17.45
2022-10-28T20:28:42.062Z,17.45
2022-10-28T20:31:11.471Z,17.21
2022-10-28T20:33:41.126Z,17.36
2022-10-28T20:36:22.884Z,17.09
2022-10-28T20:38:54.029Z,17.43
2022-10-28T20:41:21.698Z,17.28
2022-10-28T20:43:52.549Z,17.23
2022-10-28T20:46:21.443Z,17.05
2022-10-28T20:48:49.745Z,16.99
2022-10-28T20:51:17.921Z,17.03
2022-10-28T20:53:45.531Z,17.13
2022-10-28T20:56:17.287Z,17.15
2022-10-28T20:58:45.149Z,17.11
2022-10-28T21:01:16.829Z,17.05
2022-10-28T21:03:45.783Z,17.10
2022-10-28T21:06:15.085Z,16.99
2022-10-28T21:08:43.177Z,16.84
2022-10-28T21:11:13.769Z,16.70
2022-10-28T21:13:42.038Z,16.75
2022-10-28T21:16:11.617Z,16.70
2022-10-28T21:18:41.165Z,16.60
2022-10-28T21:21:08.903Z,16.46
2022-10-28T21:23:36.571Z,16.45
2022-10-28T21:26:06.838Z,16.40
2022-10-28T21:28:35.734Z,16.33
2022-10-28T21:31:05.404Z,16.33
2022-10-28T21:33:34.317Z,16.43
2022-10-28T21:36:05.695Z,16.42
2022-10-28T21:38:34.249Z,16.25
2022-10-28T21:41:03.138Z,16.31
2022-10-28T21:43:32.776Z,16.37
2022-10-28T21:46:00.820Z,16.37
2022-10-28T21:48:29.342Z,16.32
2022-10-28T21:50:59.438Z,16.32
2022-10-28T21:53:29.005Z,16.38
2022-10-28T21:56:03.569Z,16.36
2022-10-28T21:58:31.260Z,16.39
2022-10-28T22:01:03.717Z,16.38
2022-10-28T22:03:31.422Z,16.30
2022-10-28T22:05:59.089Z,16.30
2022-10-28T22:08:28.153Z,16.29
2022-10-28T22:11:00.699Z,16.27
2022-10-28T22:13:28.913Z,16.10
2022-10-28T22:16:01.335Z,16.10
2022-10-28T22:18:29.801Z,16.00
2022-10-28T22:20:58.078Z,16.00
2022-10-28T22:23:25.905Z,16.07
2022-10-28T22:25:54.915Z,16.10
2022-10-28T22:28:22.614Z,16.09
2022-10-28T22:30:50.384Z,16.19
2022-10-28T22:33:18.020Z,16.11
2022-10-28T22:35:45.637Z,16.02
2022-10-28T22:38:13.288Z,16.01
2022-10-28T22:40:41.057Z,16.09
2022-10-28T22:43:10.022Z,16.10
2022-10-28T22:45:37.624Z,16.05
2022-10-28T22:48:05.457Z,16.00
2022-10-28T22:50:33.073Z,15.90
2022-10-28T22:53:00.727Z,15.90
2022-10-28T22:55:28.390Z,15.96
2022-10-28T22:57:56.538Z,16.00
2022-10-28T23:00:25.885Z,16.06
2022-10-28T23:02:54.109Z,16.02
2022-10-28T23:05:22.007Z,15.91
2022-10-28T23:07:49.874Z,15.69
2022-10-28T23:10:17.587Z,15.31
2022-10-28T23:12:45.234Z,15.15
2022-10-28T23:15:12.911Z,15.02
2022-10-28T23:17:41.900Z,15.04
2022-10-28T23:20:10.620Z,14.89
2022-10-28T23:22:38.473Z,14.81
2022-10-28T23:25:07.145Z,14.76
2022-10-28T23:27:35.037Z,14.68
2022-10-28T23:30:02.772Z,14.66
2022-10-28T23:32:30.902Z,14.63
2022-10-28T23:35:00.000Z,14.52
2022-10-28T23:37:27.637Z,14.51
2022-10-28T23:39:55.422Z,14.55
2022-10-28T23:42:23.200Z,14.60
2022-10-28T23:44:50.951Z,14.60
2022-10-28T23:47:18.618Z,14.50
2022-10-28T23:49:46.332Z,14.52
2022-10-28T23:52:15.386Z,14.60
2022-10-28T23:54:43.209Z,14.44
2022-10-28T23:57:10.935Z,14.43
2022-10-28T23:59:38.624Z,14.41
